sensor_id;sensor_type;location;lat;lon;timestamp;temperature;humidity
10722;DHT22;5412;59.450;18.124;2023-06-10T00:01:36;10.50;99.90
10722;DHT22;5412;59.450;18.124;2023-06-10T00:04:02;10.60;99.90
10722;DHT22;5412;59.450;18.124;2023-06-10T00:06:28;10.60;99.90
10722;DHT22;5412;59.450;18.124;2023-06-10T00:09:01;10.60;99.90
10722;DHT22;5412;59.450;18.124;2023-06-10T00:11:27;10.40;99.90
10722;DHT22;5412;59.450;18.124;2023-06-10T00:13:53;10.50;99.90
10722;DHT22;5412;59.450;18.124;2023-06-10T00:16:18;10.50;99.90
10722;DHT22;5412;59.450;18.124;2023-06-10T00:18:44;10.60;99.90
10722;DHT22;5412;59.450;18.124;2023-06-10T00:21:10;10.60;99.90
10722;DHT22;5412;59.450;18.124;2023-06-10T00:23:38;10.50;99.90
10722;DHT22;5412;59.450;18.124;2023-06-10T00:26:04;10.40;99.90
10722;DHT22;5412;59.450;18.124;2023-06-10T00:28:30;10.40;99.90
10722;DHT22;5412;59.450;18.124;2023-06-10T00:30:56;10.30;99.90
10722;DHT22;5412;59.450;18.124;2023-06-10T00:33:22;10.30;99.90
10722;DHT22;5412;59.450;18.124;2023-06-10T00:35:48;10.30;99.90
10722;DHT22;5412;59.450;18.124;2023-06-10T00:38:14;10.40;99.90
10722;DHT22;5412;59.450;18.124;2023-06-10T00:40:40;10.40;99.90
10722;DHT22;5412;59.450;18.124;2023-06-10T00:43:07;10.40;99.90
10722;DHT22;5412;59.450;18.124;2023-06-10T00:45:33;10.30;99.90
10722;DHT22;5412;59.450;18.124;2023-06-10T00:48:00;10.30;99.90
10722;DHT22;5412;59.450;18.124;2023-06-10T00:50:26;10.10;99.90
10722;DHT22;5412;59.450;18.124;2023-06-10T00:52:54;9.90;99.90
10722;DHT22;5412;59.450;18.124;2023-06-10T00:55:20;9.50;99.90
10722;DHT22;5412;59.450;18.124;2023-06-10T00:57:46;9.20;99.90
10722;DHT22;5412;59.450;18.124;2023-06-10T01:00:14;9.10;99.90
10722;DHT22;5412;59.450;18.124;2023-06-10T01:02:41;9.20;99.90
10722;DHT22;5412;59.450;18.124;2023-06-10T01:05:08;9.30;99.90
10722;DHT22;5412;59.450;18.124;2023-06-10T01:07:43;9.40;99.90
10722;DHT22;5412;59.450;18.124;2023-06-10T01:10:20;9.40;99.90
10722;DHT22;5412;59.450;18.124;2023-06-10T01:13:03;9.40;99.90
10722;DHT22;5412;59.450;18.124;2023-06-10T01:15:34;9.50;99.90
10722;DHT22;5412;59.450;18.124;2023-06-10T01:18:07;9.60;99.90
10722;DHT22;5412;59.450;18.124;2023-06-10T01:20:53;9.60;99.90
10722;DHT22;5412;59.450;18.124;2023-06-10T01:23:19;9.50;99.90
10722;DHT22;5412;59.450;18.124;2023-06-10T01:26:00;9.40;99.90
10722;DHT22;5412;59.450;18.124;2023-06-10T01:28:40;9.40;99.90
10722;DHT22;5412;59.450;18.124;2023-06-10T01:33:39;9.50;99.90
10722;DHT22;5412;59.450;18.124;2023-06-10T01:36:07;9.60;99.90
10722;DHT22;5412;59.450;18.124;2023-06-10T01:38:39;9.70;99.90
10722;DHT22;5412;59.450;18.124;2023-06-10T01:41:06;9.50;99.90
10722;DHT22;5412;59.450;18.124;2023-06-10T01:43:37;9.40;99.90
10722;DHT22;5412;59.450;18.124;2023-06-10T01:46:03;9.30;99.90
10722;DHT22;5412;59.450;18.124;2023-06-10T01:48:29;9.30;99.90
10722;DHT22;5412;59.450;18.124;2023-06-10T01:50:55;9.30;99.90
10722;DHT22;5412;59.450;18.124;2023-06-10T01:53:22;9.20;99.90
10722;DHT22;5412;59.450;18.124;2023-06-10T01:55:48;9.20;99.90
10722;DHT22;5412;59.450;18.124;2023-06-10T01:58:15;9.20;99.90
10722;DHT22;5412;59.450;18.124;2023-06-10T02:00:40;9.30;99.90
10722;DHT22;5412;59.450;18.124;2023-06-10T02:03:06;9.20;99.90
10722;DHT22;5412;59.450;18.124;2023-06-10T02:05:32;9.20;99.90
10722;DHT22;5412;59.450;18.124;2023-06-10T02:07:58;9.20;99.90
10722;DHT22;5412;59.450;18.124;2023-06-10T02:10:23;9.20;99.90
10722;DHT22;5412;59.450;18.124;2023-06-10T02:12:49;9.20;99.90
10722;DHT22;5412;59.450;18.124;2023-06-10T02:15:15;9.10;99.90
10722;DHT22;5412;59.450;18.124;2023-06-10T02:17:41;9.00;99.90
10722;DHT22;5412;59.450;18.124;2023-06-10T02:20:07;8.90;99.90
10722;DHT22;5412;59.450;18.124;2023-06-10T02:22:36;8.70;99.90
10722;DHT22;5412;59.450;18.124;2023-06-10T02:25:02;8.40;99.90
10722;DHT22;5412;59.450;18.124;2023-06-10T02:27:29;8.30;99.90
10722;DHT22;5412;59.450;18.124;2023-06-10T02:29:56;8.20;99.90
10722;DHT22;5412;59.450;18.124;2023-06-10T02:32:22;8.20;99.90
10722;DHT22;5412;59.450;18.124;2023-06-10T02:34:47;8.30;99.90
10722;DHT22;5412;59.450;18.124;2023-06-10T02:37:15;8.50;99.90
10722;DHT22;5412;59.450;18.124;2023-06-10T02:39:41;8.60;99.90
10722;DHT22;5412;59.450;18.124;2023-06-10T02:42:07;8.70;99.90
10722;DHT22;5412;59.450;18.124;2023-06-10T02:44:33;8.80;99.90
10722;DHT22;5412;59.450;18.124;2023-06-10T02:46:58;8.90;99.90
10722;DHT22;5412;59.450;18.124;2023-06-10T02:49:24;8.90;99.90
10722;DHT22;5412;59.450;18.124;2023-06-10T02:51:53;8.90;99.90
10722;DHT22;5412;59.450;18.124;2023-06-10T02:54:20;8.90;99.90
10722;DHT22;5412;59.450;18.124;2023-06-10T02:56:46;9.00;99.90
10722;DHT22;5412;59.450;18.124;2023-06-10T02:59:13;9.00;99.90
10722;DHT22;5412;59.450;18.124;2023-06-10T03:01:40;9.00;99.90
10722;DHT22;5412;59.450;18.124;2023-06-10T03:04:06;9.10;99.90
10722;DHT22;5412;59.450;18.124;2023-06-10T03:06:32;9.30;99.90
10722;DHT22;5412;59.450;18.124;2023-06-10T03:09:01;9.30;99.90
10722;DHT22;5412;59.450;18.124;2023-06-10T03:11:26;9.50;99.90
10722;DHT22;5412;59.450;18.124;2023-06-10T03:13:52;9.60;99.90
10722;DHT22;5412;59.450;18.124;2023-06-10T03:16:19;9.60;99.90
10722;DHT22;5412;59.450;18.124;2023-06-10T03:18:45;9.60;99.90
10722;DHT22;5412;59.450;18.124;2023-06-10T03:21:11;9.70;99.90
10722;DHT22;5412;59.450;18.124;2023-06-10T03:23:37;9.80;99.90
10722;DHT22;5412;59.450;18.124;2023-06-10T03:26:04;10.00;99.90
10722;DHT22;5412;59.450;18.124;2023-06-10T03:28:31;10.00;99.90
10722;DHT22;5412;59.450;18.124;2023-06-10T03:30:57;10.10;99.90
10722;DHT22;5412;59.450;18.124;2023-06-10T03:33:23;10.10;99.90
10722;DHT22;5412;59.450;18.124;2023-06-10T03:35:49;10.20;99.90
10722;DHT22;5412;59.450;18.124;2023-06-10T03:38:15;10.30;99.90
10722;DHT22;5412;59.450;18.124;2023-06-10T03:40:41;10.40;99.90
10722;DHT22;5412;59.450;18.124;2023-06-10T03:43:06;10.50;99.90
10722;DHT22;5412;59.450;18.124;2023-06-10T03:45:32;10.50;99.90
10722;DHT22;5412;59.450;18.124;2023-06-10T03:47:58;10.60;99.90
10722;DHT22;5412;59.450;18.124;2023-06-10T03:50:24;10.50;99.90
10722;DHT22;5412;59.450;18.124;2023-06-10T03:52:50;10.70;99.90
10722;DHT22;5412;59.450;18.124;2023-06-10T03:55:16;10.70;99.90
10722;DHT22;5412;59.450;18.124;2023-06-10T03:57:43;10.80;99.90
10722;DHT22;5412;59.450;18.124;2023-06-10T04:00:09;10.80;99.90
10722;DHT22;5412;59.450;18.124;2023-06-10T04:02:38;10.90;99.90
10722;DHT22;5412;59.450;18.124;2023-06-10T04:05:17;10.70;99.90
10722;DHT22;5412;59.450;18.124;2023-06-10T04:07:44;10.70;99.90
10722;DHT22;5412;59.450;18.124;2023-06-10T04:10:10;10.80;99.90
10722;DHT22;5412;59.450;18.124;2023-06-10T04:12:37;10.80;99.90
10722;DHT22;5412;59.450;18.124;2023-06-10T04:15:04;10.80;99.90
10722;DHT22;5412;59.450;18.124;2023-06-10T04:17:29;10.80;99.90
10722;DHT22;5412;59.450;18.124;2023-06-10T04:19:56;10.80;99.90
10722;DHT22;5412;59.450;18.124;2023-06-10T04:22:21;11.00;99.90
10722;DHT22;5412;59.450;18.124;2023-06-10T04:24:48;11.00;99.90
10722;DHT22;5412;59.450;18.124;2023-06-10T04:27:14;11.20;99.90
10722;DHT22;5412;59.450;18.124;2023-06-10T04:29:40;11.20;99.90
10722;DHT22;5412;59.450;18.124;2023-06-10T04:32:06;11.50;99.90
10722;DHT22;5412;59.450;18.124;2023-06-10T04:34:36;11.60;99.90
10722;DHT22;5412;59.450;18.124;2023-06-10T04:37:04;11.70;99.90
10722;DHT22;5412;59.450;18.124;2023-06-10T04:39:30;11.70;99.90
10722;DHT22;5412;59.450;18.124;2023-06-10T04:41:56;11.80;99.90
10722;DHT22;5412;59.450;18.124;2023-06-10T04:44:22;11.80;99.90
10722;DHT22;5412;59.450;18.124;2023-06-10T04:46:48;11.80;99.90
10722;DHT22;5412;59.450;18.124;2023-06-10T04:49:14;12.00;99.90
10722;DHT22;5412;59.450;18.124;2023-06-10T04:51:39;12.00;99.90
10722;DHT22;5412;59.450;18.124;2023-06-10T04:54:05;12.10;99.90
10722;DHT22;5412;59.450;18.124;2023-06-10T04:56:31;12.20;99.90
10722;DHT22;5412;59.450;18.124;2023-06-10T04:58:57;12.20;99.90
10722;DHT22;5412;59.450;18.124;2023-06-10T05:01:23;12.20;99.90
10722;DHT22;5412;59.450;18.124;2023-06-10T05:03:49;12.30;99.90
10722;DHT22;5412;59.450;18.124;2023-06-10T05:06:15;12.40;99.90
10722;DHT22;5412;59.450;18.124;2023-06-10T05:08:41;12.20;99.90
10722;DHT22;5412;59.450;18.124;2023-06-10T05:11:06;12.20;99.90
10722;DHT22;5412;59.450;18.124;2023-06-10T05:13:32;12.30;99.90
10722;DHT22;5412;59.450;18.124;2023-06-10T05:15:58;12.30;99.90
10722;DHT22;5412;59.450;18.124;2023-06-10T05:18:24;12.50;99.90
10722;DHT22;5412;59.450;18.124;2023-06-10T05:20:50;12.70;99.90
10722;DHT22;5412;59.450;18.124;2023-06-10T05:23:16;12.90;99.90
10722;DHT22;5412;59.450;18.124;2023-06-10T05:25:41;13.00;99.90
10722;DHT22;5412;59.450;18.124;2023-06-10T05:28:08;13.10;99.90
10722;DHT22;5412;59.450;18.124;2023-06-10T05:30:36;13.10;99.90
10722;DHT22;5412;59.450;18.124;2023-06-10T05:33:02;13.20;99.90
10722;DHT22;5412;59.450;18.124;2023-06-10T05:35:28;13.30;99.90
10722;DHT22;5412;59.450;18.124;2023-06-10T05:37:54;13.40;99.90
10722;DHT22;5412;59.450;18.124;2023-06-10T05:40:20;13.60;99.90
10722;DHT22;5412;59.450;18.124;2023-06-10T05:42:45;13.70;99.90
10722;DHT22;5412;59.450;18.124;2023-06-10T05:45:11;13.70;99.90
10722;DHT22;5412;59.450;18.124;2023-06-10T05:47:37;13.70;99.90
10722;DHT22;5412;59.450;18.124;2023-06-10T05:50:03;13.80;99.90
10722;DHT22;5412;59.450;18.124;2023-06-10T05:52:33;14.10;99.90
10722;DHT22;5412;59.450;18.124;2023-06-10T05:54:59;14.30;99.90
10722;DHT22;5412;59.450;18.124;2023-06-10T05:57:25;14.40;99.90
10722;DHT22;5412;59.450;18.124;2023-06-10T05:59:51;14.60;99.90
10722;DHT22;5412;59.450;18.124;2023-06-10T06:02:17;14.70;99.90
10722;DHT22;5412;59.450;18.124;2023-06-10T06:04:43;14.70;99.90
10722;DHT22;5412;59.450;18.124;2023-06-10T06:07:09;14.70;99.90
10722;DHT22;5412;59.450;18.124;2023-06-10T06:09:34;14.60;99.90
10722;DHT22;5412;59.450;18.124;2023-06-10T06:12:00;14.60;99.90
10722;DHT22;5412;59.450;18.124;2023-06-10T06:14:26;14.70;99.90
10722;DHT22;5412;59.450;18.124;2023-06-10T06:16:52;14.60;99.90
10722;DHT22;5412;59.450;18.124;2023-06-10T06:19:17;14.70;99.90
10722;DHT22;5412;59.450;18.124;2023-06-10T06:21:43;14.90;99.90
10722;DHT22;5412;59.450;18.124;2023-06-10T06:24:09;15.10;99.90
10722;DHT22;5412;59.450;18.124;2023-06-10T06:26:34;15.20;99.90
10722;DHT22;5412;59.450;18.124;2023-06-10T06:29:00;15.20;99.90
10722;DHT22;5412;59.450;18.124;2023-06-10T06:31:26;15.10;99.90
10722;DHT22;5412;59.450;18.124;2023-06-10T06:33:51;15.20;99.90
10722;DHT22;5412;59.450;18.124;2023-06-10T06:36:17;15.30;99.90
10722;DHT22;5412;59.450;18.124;2023-06-10T06:38:43;15.50;99.90
10722;DHT22;5412;59.450;18.124;2023-06-10T06:41:08;15.60;99.90
10722;DHT22;5412;59.450;18.124;2023-06-10T06:43:34;15.80;99.90
10722;DHT22;5412;59.450;18.124;2023-06-10T06:46:00;16.00;99.90
10722;DHT22;5412;59.450;18.124;2023-06-10T06:48:26;16.20;99.90
10722;DHT22;5412;59.450;18.124;2023-06-10T06:50:52;16.20;99.90
10722;DHT22;5412;59.450;18.124;2023-06-10T06:53:17;16.40;99.90
10722;DHT22;5412;59.450;18.124;2023-06-10T06:55:43;16.60;99.90
10722;DHT22;5412;59.450;18.124;2023-06-10T06:58:09;16.70;99.90
10722;DHT22;5412;59.450;18.124;2023-06-10T07:00:34;16.60;99.90
10722;DHT22;5412;59.450;18.124;2023-06-10T07:03:00;16.60;99.90
10722;DHT22;5412;59.450;18.124;2023-06-10T07:05:26;16.90;99.90
10722;DHT22;5412;59.450;18.124;2023-06-10T07:07:53;17.00;99.90
10722;DHT22;5412;59.450;18.124;2023-06-10T07:10:24;17.20;99.90
10722;DHT22;5412;59.450;18.124;2023-06-10T07:12:51;17.30;99.90
10722;DHT22;5412;59.450;18.124;2023-06-10T07:15:16;17.40;99.90
10722;DHT22;5412;59.450;18.124;2023-06-10T07:17:42;17.50;99.90
10722;DHT22;5412;59.450;18.124;2023-06-10T07:20:08;17.70;99.90
10722;DHT22;5412;59.450;18.124;2023-06-10T07:22:34;17.80;99.90
10722;DHT22;5412;59.450;18.124;2023-06-10T07:25:00;17.70;99.90
10722;DHT22;5412;59.450;18.124;2023-06-10T07:27:26;17.90;99.90
10722;DHT22;5412;59.450;18.124;2023-06-10T07:29:51;18.10;99.90
10722;DHT22;5412;59.450;18.124;2023-06-10T07:32:19;18.20;99.90
10722;DHT22;5412;59.450;18.124;2023-06-10T07:34:47;18.10;99.90
10722;DHT22;5412;59.450;18.124;2023-06-10T07:37:13;18.30;99.90
10722;DHT22;5412;59.450;18.124;2023-06-10T07:39:39;18.50;99.90
10722;DHT22;5412;59.450;18.124;2023-06-10T07:42:05;18.60;99.90
10722;DHT22;5412;59.450;18.124;2023-06-10T07:44:31;18.60;99.90
10722;DHT22;5412;59.450;18.124;2023-06-10T07:46:57;18.90;99.90
10722;DHT22;5412;59.450;18.124;2023-06-10T07:49:23;19.00;99.90
10722;DHT22;5412;59.450;18.124;2023-06-10T07:51:50;19.20;98.60
10722;DHT22;5412;59.450;18.124;2023-06-10T07:54:16;19.30;98.70
10722;DHT22;5412;59.450;18.124;2023-06-10T07:56:41;19.40;98.30
10722;DHT22;5412;59.450;18.124;2023-06-10T07:59:07;19.30;96.80
10722;DHT22;5412;59.450;18.124;2023-06-10T08:01:33;19.50;96.50
10722;DHT22;5412;59.450;18.124;2023-06-10T08:04:01;19.50;96.60
10722;DHT22;5412;59.450;18.124;2023-06-10T08:06:26;19.60;93.60
10722;DHT22;5412;59.450;18.124;2023-06-10T08:08:52;19.80;92.20
10722;DHT22;5412;59.450;18.124;2023-06-10T08:11:18;19.70;92.00
10722;DHT22;5412;59.450;18.124;2023-06-10T08:13:44;19.70;92.10
10722;DHT22;5412;59.450;18.124;2023-06-10T08:16:10;19.70;91.70
10722;DHT22;5412;59.450;18.124;2023-06-10T08:18:35;19.80;91.90
10722;DHT22;5412;59.450;18.124;2023-06-10T08:21:01;20.00;90.40
10722;DHT22;5412;59.450;18.124;2023-06-10T08:23:27;20.10;89.40
10722;DHT22;5412;59.450;18.124;2023-06-10T08:25:53;19.90;87.20
10722;DHT22;5412;59.450;18.124;2023-06-10T08:28:18;20.00;89.10
10722;DHT22;5412;59.450;18.124;2023-06-10T08:30:45;20.10;85.60
10722;DHT22;5412;59.450;18.124;2023-06-10T08:33:11;20.20;82.20
10722;DHT22;5412;59.450;18.124;2023-06-10T08:35:36;20.30;77.20
10722;DHT22;5412;59.450;18.124;2023-06-10T08:38:02;20.40;76.00
10722;DHT22;5412;59.450;18.124;2023-06-10T08:40:28;20.10;76.20
10722;DHT22;5412;59.450;18.124;2023-06-10T08:43:07;20.30;78.50
10722;DHT22;5412;59.450;18.124;2023-06-10T08:45:36;20.20;77.90
10722;DHT22;5412;59.450;18.124;2023-06-10T08:48:05;20.50;77.60
10722;DHT22;5412;59.450;18.124;2023-06-10T08:50:35;20.50;77.50
10722;DHT22;5412;59.450;18.124;2023-06-10T08:53:06;20.70;74.50
10722;DHT22;5412;59.450;18.124;2023-06-10T08:55:33;20.60;70.20
10722;DHT22;5412;59.450;18.124;2023-06-10T08:58:01;20.70;78.10
10722;DHT22;5412;59.450;18.124;2023-06-10T09:00:28;20.60;77.00
10722;DHT22;5412;59.450;18.124;2023-06-10T09:02:58;20.50;73.60
10722;DHT22;5412;59.450;18.124;2023-06-10T09:05:24;20.50;72.10
10722;DHT22;5412;59.450;18.124;2023-06-10T09:07:52;20.50;74.80
10722;DHT22;5412;59.450;18.124;2023-06-10T09:10:19;20.50;75.60
10722;DHT22;5412;59.450;18.124;2023-06-10T09:12:45;20.60;77.20
10722;DHT22;5412;59.450;18.124;2023-06-10T09:15:11;20.70;72.90
10722;DHT22;5412;59.450;18.124;2023-06-10T09:17:38;20.70;72.10
10722;DHT22;5412;59.450;18.124;2023-06-10T09:20:09;20.80;71.20
10722;DHT22;5412;59.450;18.124;2023-06-10T09:22:35;20.70;74.30
10722;DHT22;5412;59.450;18.124;2023-06-10T09:25:11;20.80;74.00
10722;DHT22;5412;59.450;18.124;2023-06-10T09:27:51;20.90;72.30
10722;DHT22;5412;59.450;18.124;2023-06-10T09:30:33;21.10;71.50
10722;DHT22;5412;59.450;18.124;2023-06-10T09:33:09;21.00;73.80
10722;DHT22;5412;59.450;18.124;2023-06-10T09:35:35;21.10;71.80
10722;DHT22;5412;59.450;18.124;2023-06-10T09:38:01;20.90;67.70
10722;DHT22;5412;59.450;18.124;2023-06-10T09:40:28;20.80;68.40
10722;DHT22;5412;59.450;18.124;2023-06-10T09:42:55;20.80;71.20
10722;DHT22;5412;59.450;18.124;2023-06-10T09:45:22;21.00;68.30
10722;DHT22;5412;59.450;18.124;2023-06-10T09:47:51;21.00;68.10
10722;DHT22;5412;59.450;18.124;2023-06-10T09:50:17;20.90;70.40
10722;DHT22;5412;59.450;18.124;2023-06-10T09:52:43;20.80;67.70
10722;DHT22;5412;59.450;18.124;2023-06-10T09:55:11;20.70;67.30
10722;DHT22;5412;59.450;18.124;2023-06-10T09:57:36;21.00;66.90
10722;DHT22;5412;59.450;18.124;2023-06-10T10:00:08;21.00;67.30
10722;DHT22;5412;59.450;18.124;2023-06-10T10:02:47;20.90;66.50
10722;DHT22;5412;59.450;18.124;2023-06-10T10:05:18;20.90;66.30
10722;DHT22;5412;59.450;18.124;2023-06-10T10:07:44;21.10;68.90
10722;DHT22;5412;59.450;18.124;2023-06-10T10:10:12;21.20;66.90
10722;DHT22;5412;59.450;18.124;2023-06-10T10:12:38;21.20;70.00
10722;DHT22;5412;59.450;18.124;2023-06-10T10:15:07;21.00;69.30
10722;DHT22;5412;59.450;18.124;2023-06-10T10:17:48;21.10;71.20
10722;DHT22;5412;59.450;18.124;2023-06-10T10:20:20;20.90;71.00
10722;DHT22;5412;59.450;18.124;2023-06-10T10:22:47;20.90;71.20
10722;DHT22;5412;59.450;18.124;2023-06-10T10:25:17;20.90;72.00
10722;DHT22;5412;59.450;18.124;2023-06-10T10:27:56;21.00;72.20
10722;DHT22;5412;59.450;18.124;2023-06-10T10:30:23;21.20;76.80
10722;DHT22;5412;59.450;18.124;2023-06-10T10:32:58;21.20;75.40
10722;DHT22;5412;59.450;18.124;2023-06-10T10:35:27;21.20;75.90
10722;DHT22;5412;59.450;18.124;2023-06-10T10:37:53;21.20;75.80
10722;DHT22;5412;59.450;18.124;2023-06-10T10:40:23;21.10;73.70
10722;DHT22;5412;59.450;18.124;2023-06-10T10:42:51;21.20;73.60
10722;DHT22;5412;59.450;18.124;2023-06-10T10:45:17;21.30;70.70
10722;DHT22;5412;59.450;18.124;2023-06-10T10:47:45;21.20;69.50
10722;DHT22;5412;59.450;18.124;2023-06-10T10:50:18;21.00;72.00
10722;DHT22;5412;59.450;18.124;2023-06-10T10:53:01;20.80;74.30
10722;DHT22;5412;59.450;18.124;2023-06-10T10:55:28;21.00;75.10
10722;DHT22;5412;59.450;18.124;2023-06-10T10:58:14;21.10;74.10
10722;DHT22;5412;59.450;18.124;2023-06-10T11:00:45;21.10;74.30
10722;DHT22;5412;59.450;18.124;2023-06-10T11:03:15;21.10;74.40
10722;DHT22;5412;59.450;18.124;2023-06-10T11:05:46;21.20;74.70
10722;DHT22;5412;59.450;18.124;2023-06-10T11:08:45;21.20;71.60
10722;DHT22;5412;59.450;18.124;2023-06-10T11:11:18;21.00;71.40
10722;DHT22;5412;59.450;18.124;2023-06-10T11:14:07;20.90;70.10
10722;DHT22;5412;59.450;18.124;2023-06-10T11:16:42;21.10;72.10
10722;DHT22;5412;59.450;18.124;2023-06-10T11:19:08;20.80;72.40
10722;DHT22;5412;59.450;18.124;2023-06-10T11:22:05;20.70;71.80
10722;DHT22;5412;59.450;18.124;2023-06-10T11:24:31;20.50;72.00
10722;DHT22;5412;59.450;18.124;2023-06-10T11:27:19;20.50;73.80
10722;DHT22;5412;59.450;18.124;2023-06-10T11:32:33;20.60;72.50
10722;DHT22;5412;59.450;18.124;2023-06-10T11:35:02;20.50;73.70
10722;DHT22;5412;59.450;18.124;2023-06-10T11:37:29;20.60;73.00
10722;DHT22;5412;59.450;18.124;2023-06-10T11:39:55;20.70;73.40
10722;DHT22;5412;59.450;18.124;2023-06-10T11:42:24;20.60;72.40
10722;DHT22;5412;59.450;18.124;2023-06-10T11:44:51;20.60;72.00
10722;DHT22;5412;59.450;18.124;2023-06-10T11:47:18;20.40;73.40
10722;DHT22;5412;59.450;18.124;2023-06-10T11:49:44;20.40;72.20
10722;DHT22;5412;59.450;18.124;2023-06-10T11:52:11;20.40;73.10
10722;DHT22;5412;59.450;18.124;2023-06-10T11:54:37;20.40;72.60
10722;DHT22;5412;59.450;18.124;2023-06-10T11:57:03;20.50;71.80
10722;DHT22;5412;59.450;18.124;2023-06-10T11:59:30;20.80;72.30
10722;DHT22;5412;59.450;18.124;2023-06-10T12:01:57;20.60;71.20
10722;DHT22;5412;59.450;18.124;2023-06-10T12:04:23;20.70;71.80
10722;DHT22;5412;59.450;18.124;2023-06-10T12:06:52;20.90;70.90
10722;DHT22;5412;59.450;18.124;2023-06-10T12:09:27;20.90;68.30
10722;DHT22;5412;59.450;18.124;2023-06-10T12:14:54;20.80;69.00
10722;DHT22;5412;59.450;18.124;2023-06-10T12:20:00;21.20;69.20
10722;DHT22;5412;59.450;18.124;2023-06-10T12:22:26;21.30;69.60
10722;DHT22;5412;59.450;18.124;2023-06-10T12:25:00;21.60;67.50
10722;DHT22;5412;59.450;18.124;2023-06-10T12:27:27;21.80;66.60
10722;DHT22;5412;59.450;18.124;2023-06-10T12:29:56;22.10;67.40
10722;DHT22;5412;59.450;18.124;2023-06-10T12:32:42;22.40;67.80
10722;DHT22;5412;59.450;18.124;2023-06-10T12:35:09;22.50;67.80
10722;DHT22;5412;59.450;18.124;2023-06-10T12:37:36;22.70;65.40
10722;DHT22;5412;59.450;18.124;2023-06-10T12:40:05;22.70;64.30
10722;DHT22;5412;59.450;18.124;2023-06-10T12:42:36;22.80;64.80
10722;DHT22;5412;59.450;18.124;2023-06-10T12:45:03;23.10;64.20
10722;DHT22;5412;59.450;18.124;2023-06-10T12:47:34;23.30;64.00
10722;DHT22;5412;59.450;18.124;2023-06-10T12:50:01;23.10;62.50
10722;DHT22;5412;59.450;18.124;2023-06-10T12:52:28;23.20;63.40
10722;DHT22;5412;59.450;18.124;2023-06-10T12:54:54;23.30;62.60
10722;DHT22;5412;59.450;18.124;2023-06-10T12:57:21;23.30;62.00
10722;DHT22;5412;59.450;18.124;2023-06-10T12:59:47;23.50;62.40
10722;DHT22;5412;59.450;18.124;2023-06-10T13:02:18;23.40;62.00
10722;DHT22;5412;59.450;18.124;2023-06-10T13:04:45;23.70;61.90
10722;DHT22;5412;59.450;18.124;2023-06-10T13:07:11;23.90;60.20
10722;DHT22;5412;59.450;18.124;2023-06-10T13:09:37;23.80;58.90
10722;DHT22;5412;59.450;18.124;2023-06-10T13:12:03;23.90;59.70
10722;DHT22;5412;59.450;18.124;2023-06-10T13:14:28;24.00;59.20
10722;DHT22;5412;59.450;18.124;2023-06-10T13:16:55;24.10;58.40
10722;DHT22;5412;59.450;18.124;2023-06-10T13:19:21;24.30;58.10
10722;DHT22;5412;59.450;18.124;2023-06-10T13:21:49;24.60;57.80
10722;DHT22;5412;59.450;18.124;2023-06-10T13:24:15;24.90;57.80
10722;DHT22;5412;59.450;18.124;2023-06-10T13:26:41;25.40;57.50
10722;DHT22;5412;59.450;18.124;2023-06-10T13:29:06;25.70;56.40
10722;DHT22;5412;59.450;18.124;2023-06-10T13:31:33;26.10;56.30
10722;DHT22;5412;59.450;18.124;2023-06-10T13:33:59;26.10;54.70
10722;DHT22;5412;59.450;18.124;2023-06-10T13:36:25;26.10;55.10
10722;DHT22;5412;59.450;18.124;2023-06-10T13:38:51;26.00;54.00
10722;DHT22;5412;59.450;18.124;2023-06-10T13:41:16;26.00;54.20
10722;DHT22;5412;59.450;18.124;2023-06-10T13:43:42;26.50;54.60
10722;DHT22;5412;59.450;18.124;2023-06-10T13:46:08;26.60;53.30
10722;DHT22;5412;59.450;18.124;2023-06-10T13:48:34;26.50;53.30
10722;DHT22;5412;59.450;18.124;2023-06-10T13:51:00;26.60;53.50
10722;DHT22;5412;59.450;18.124;2023-06-10T13:53:26;26.60;53.00
10722;DHT22;5412;59.450;18.124;2023-06-10T13:55:52;26.50;52.10
10722;DHT22;5412;59.450;18.124;2023-06-10T13:58:18;26.80;51.10
10722;DHT22;5412;59.450;18.124;2023-06-10T14:00:44;26.80;51.20
10722;DHT22;5412;59.450;18.124;2023-06-10T14:03:11;26.70;50.40
10722;DHT22;5412;59.450;18.124;2023-06-10T14:05:36;26.80;50.60
10722;DHT22;5412;59.450;18.124;2023-06-10T14:08:02;27.00;51.20
10722;DHT22;5412;59.450;18.124;2023-06-10T14:10:28;27.20;50.30
10722;DHT22;5412;59.450;18.124;2023-06-10T14:12:54;27.30;51.40
10722;DHT22;5412;59.450;18.124;2023-06-10T14:15:19;27.40;49.60
10722;DHT22;5412;59.450;18.124;2023-06-10T14:17:45;27.40;48.40
10722;DHT22;5412;59.450;18.124;2023-06-10T14:20:11;27.60;47.60
10722;DHT22;5412;59.450;18.124;2023-06-10T14:22:37;27.50;47.90
10722;DHT22;5412;59.450;18.124;2023-06-10T14:25:03;27.30;47.90
10722;DHT22;5412;59.450;18.124;2023-06-10T14:27:29;27.60;48.40
10722;DHT22;5412;59.450;18.124;2023-06-10T14:29:55;27.60;47.50
10722;DHT22;5412;59.450;18.124;2023-06-10T14:32:21;27.90;47.50
10722;DHT22;5412;59.450;18.124;2023-06-10T14:34:46;28.10;47.50
10722;DHT22;5412;59.450;18.124;2023-06-10T14:37:12;28.30;47.20
10722;DHT22;5412;59.450;18.124;2023-06-10T14:39:38;28.30;47.00
10722;DHT22;5412;59.450;18.124;2023-06-10T14:42:04;28.40;46.00
10722;DHT22;5412;59.450;18.124;2023-06-10T14:44:30;28.30;47.10
10722;DHT22;5412;59.450;18.124;2023-06-10T14:46:56;28.30;46.70
10722;DHT22;5412;59.450;18.124;2023-06-10T14:49:22;28.70;46.80
10722;DHT22;5412;59.450;18.124;2023-06-10T14:51:48;28.90;45.40
10722;DHT22;5412;59.450;18.124;2023-06-10T14:54:15;28.80;45.60
10722;DHT22;5412;59.450;18.124;2023-06-10T14:56:41;28.80;45.80
10722;DHT22;5412;59.450;18.124;2023-06-10T14:59:07;28.60;45.90
10722;DHT22;5412;59.450;18.124;2023-06-10T15:01:32;28.60;46.00
10722;DHT22;5412;59.450;18.124;2023-06-10T15:03:58;28.90;45.40
10722;DHT22;5412;59.450;18.124;2023-06-10T15:06:24;29.00;45.60
10722;DHT22;5412;59.450;18.124;2023-06-10T15:08:50;28.90;44.80
10722;DHT22;5412;59.450;18.124;2023-06-10T15:11:16;29.00;45.40
10722;DHT22;5412;59.450;18.124;2023-06-10T15:13:41;28.70;45.20
10722;DHT22;5412;59.450;18.124;2023-06-10T15:16:07;28.70;45.30
10722;DHT22;5412;59.450;18.124;2023-06-10T15:18:33;29.10;45.30
10722;DHT22;5412;59.450;18.124;2023-06-10T15:20:59;29.30;44.80
10722;DHT22;5412;59.450;18.124;2023-06-10T15:23:25;29.20;43.90
10722;DHT22;5412;59.450;18.124;2023-06-10T15:25:51;29.50;43.80
10722;DHT22;5412;59.450;18.124;2023-06-10T15:28:17;29.80;43.50
10722;DHT22;5412;59.450;18.124;2023-06-10T15:30:43;29.70;42.80
10722;DHT22;5412;59.450;18.124;2023-06-10T15:33:08;29.60;42.90
10722;DHT22;5412;59.450;18.124;2023-06-10T15:35:34;29.70;42.50
10722;DHT22;5412;59.450;18.124;2023-06-10T15:38:00;29.70;42.20
10722;DHT22;5412;59.450;18.124;2023-06-10T15:40:26;30.00;42.40
10722;DHT22;5412;59.450;18.124;2023-06-10T15:42:51;30.10;42.10
10722;DHT22;5412;59.450;18.124;2023-06-10T15:45:17;30.30;41.20